Time;durP1;ratioP1;P1;durP2;ratioP2;P2;SDS_P1;SDS_P2;PMS_P1;PMS_P2;Temp;Humidity;BMP_temperature;BMP_pressure;BME280_temperature;BME280_humidity;BME280_pressure;Samples;Min_cycle;Max_cycle;Signal;HPM_P1;HPM_P2
2022/03/12 00:02:26;;;;;;;0.70;0.60;;;10.10;39.00;;;;;;4920666;29;20478;-72
2022/03/12 00:04:51;;;;;;;0.80;0.50;;;10.10;39.60;;;;;;4920360;29;20427;-71
2022/03/12 00:07:17;;;;;;;0.70;0.50;;;10.10;38.90;;;;;;4920100;29;20442;-72
2022/03/12 00:09:43;;;;;;;0.93;0.93;;;10.10;39.00;;;;;;4920628;29;20187;-72
2022/03/12 00:12:13;;;;;;;0.90;0.77;;;10.10;38.80;;;;;;4920841;29;20176;-72
2022/03/12 00:14:39;;;;;;;0.70;0.50;;;10.10;38.50;;;;;;4920591;29;20191;-72
2022/03/12 00:17:05;;;;;;;1.10;1.00;;;10.10;38.40;;;;;;4920627;29;20459;-71
2022/03/12 00:19:32;;;;;;;1.67;1.57;;;10.10;38.40;;;;;;4919080;29;20439;-72
2022/03/12 00:21:58;;;;;;;1.43;1.33;;;10.20;38.70;;;;;;4920738;29;20977;-72
2022/03/12 00:24:28;;;;;;;0.80;0.60;;;10.10;38.60;;;;;;4920298;29;20435;-71
2022/03/12 00:26:53;;;;;;;0.70;0.57;;;10.10;38.50;;;;;;4920211;29;20414;-72
2022/03/12 00:29:20;;;;;;;0.70;0.60;;;10.10;38.60;;;;;;4920727;29;20471;-72
2022/03/12 00:31:48;;;;;;;2.97;1.53;;;10.20;38.70;;;;;;4934641;28;20183;-72
2022/03/12 00:34:14;;;;;;;1.23;0.80;;;10.10;38.90;;;;;;4920491;29;20442;-71
2022/03/12 00:36:41;;;;;;;0.90;0.90;;;10.10;39.00;;;;;;4920082;29;20462;-71
2022/03/12 00:39:09;;;;;;;0.80;0.53;;;10.10;39.10;;;;;;4920013;29;20813;-72
2022/03/12 00:41:36;;;;;;;1.00;0.70;;;10.10;39.00;;;;;;4919999;29;20830;-72
2022/03/12 00:44:02;;;;;;;0.70;0.50;;;10.20;39.40;;;;;;4919753;29;20446;-71
2022/03/12 00:46:28;;;;;;;0.70;0.50;;;10.10;39.50;;;;;;4919878;29;20514;-72
2022/03/12 00:48:53;;;;;;;1.20;1.07;;;10.10;39.60;;;;;;4919964;29;20465;-72
2022/03/12 00:51:19;;;;;;;0.70;0.50;;;10.10;39.70;;;;;;4920041;29;20188;-72
2022/03/12 00:53:44;;;;;;;1.00;0.90;;;10.10;39.90;;;;;;4920412;29;20195;-72
2022/03/12 00:56:11;;;;;;;1.03;0.87;;;10.10;39.50;;;;;;4934376;28;20190;-72
2022/03/12 00:58:37;;;;;;;0.70;0.60;;;10.10;39.50;;;;;;4920056;29;20200;-72
2022/03/12 01:01:04;;;;;;;1.07;0.90;;;10.10;39.80;;;;;;4920096;29;20414;-72
2022/03/12 01:03:30;;;;;;;0.70;0.60;;;10.10;39.50;;;;;;4920092;29;20444;-71
2022/03/12 01:06:00;;;;;;;0.80;0.70;;;10.10;39.20;;;;;;4919876;29;20426;-73
2022/03/12 01:08:27;;;;;;;1.30;1.20;;;10.10;39.30;;;;;;4919264;29;20474;-71
2022/03/12 01:10:55;;;;;;;0.70;0.50;;;10.20;39.50;;;;;;4920067;29;20495;-71
2022/03/12 01:13:21;;;;;;;0.70;0.50;;;10.20;39.30;;;;;;4920193;29;20522;-71
2022/03/12 01:15:47;;;;;;;1.37;1.27;;;10.20;39.00;;;;;;4918762;29;20430;-71
2022/03/12 01:18:16;;;;;;;1.73;1.53;;;10.20;38.90;;;;;;4920335;29;20467;-71
2022/03/12 01:20:42;;;;;;;1.03;0.87;;;10.20;38.60;;;;;;4931063;28;20183;-71
2022/03/12 01:23:09;;;;;;;0.70;0.60;;;10.20;38.60;;;;;;4918697;29;20454;-71
2022/03/12 01:25:34;;;;;;;0.70;0.50;;;10.20;38.60;;;;;;4919540;29;20459;-71
2022/03/12 01:28:00;;;;;;;0.70;0.50;;;10.20;38.20;;;;;;4918858;29;20923;-71
2022/03/12 01:30:28;;;;;;;0.87;0.80;;;10.20;38.20;;;;;;4919577;29;20175;-71
2022/03/12 01:32:53;;;;;;;0.73;0.60;;;10.20;38.00;;;;;;4919516;29;20677;-71
2022/03/12 01:35:19;;;;;;;1.37;0.60;;;10.30;38.10;;;;;;4918353;29;20426;-71
2022/03/12 01:37:45;;;;;;;1.10;1.03;;;10.20;38.10;;;;;;4919939;29;20199;-71
2022/03/12 01:40:11;;;;;;;1.43;1.33;;;10.30;38.30;;;;;;4919603;29;20175;-71
2022/03/12 01:42:37;;;;;;;0.80;0.80;;;10.20;38.30;;;;;;4919579;29;20940;-71
2022/03/12 01:45:07;;;;;;;0.70;0.50;;;10.20;38.30;;;;;;4919184;29;20428;-71
2022/03/12 01:47:33;;;;;;;1.13;0.80;;;10.20;38.30;;;;;;4919663;29;20411;-71
2022/03/12 01:49:59;;;;;;;1.13;1.03;;;10.20;38.30;;;;;;4919102;29;20798;-71
2022/03/12 01:52:25;;;;;;;8.70;1.03;;;10.20;37.90;;;;;;4918087;29;20187;-71
2022/03/12 01:54:51;;;;;;;1.53;1.43;;;10.20;38.10;;;;;;4920361;29;20490;-71
2022/03/12 01:57:17;;;;;;;1.10;0.90;;;10.30;38.30;;;;;;4929848;28;20460;-72
2022/03/12 01:59:43;;;;;;;1.50;1.40;;;10.20;39.10;;;;;;4900973;29;20432;-71
2022/03/12 02:02:13;;;;;;;0.80;0.70;;;10.30;38.30;;;;;;4900807;29;20196;-71
2022/03/12 02:04:42;;;;;;;0.77;0.67;;;10.30;38.40;;;;;;4900497;29;20440;-71
2022/03/12 02:07:07;;;;;;;2.90;1.63;;;10.30;38.20;;;;;;4914119;29;20436;-71
2022/03/12 02:09:33;;;;;;;0.80;0.70;;;10.20;38.30;;;;;;4913020;29;20451;-71
2022/03/12 02:11:58;;;;;;;1.00;0.90;;;10.20;38.70;;;;;;4933887;29;20182;-71
2022/03/12 02:14:26;;;;;;;2.40;2.00;;;10.30;38.80;;;;;;4933375;29;20201;-71
2022/03/12 02:16:54;;;;;;;1.50;1.40;;;10.30;38.60;;;;;;4918967;29;20635;-71
2022/03/12 02:19:21;;;;;;;0.70;0.50;;;10.30;38.70;;;;;;4918831;29;20431;-72
2022/03/12 02:22:17;;;;;;;0.70;0.50;;;10.30;38.70;;;;;;4918155;29;20902;-71
2022/03/12 02:24:43;;;;;;;1.40;0.83;;;10.20;38.60;;;;;;4919051;29;20515;-71
2022/03/12 02:27:10;;;;;;;1.67;1.50;;;10.30;38.70;;;;;;4918621;29;20426;-71
2022/03/12 02:29:37;;;;;;;1.30;1.20;;;10.20;38.70;;;;;;4917399;29;20190;-71
2022/03/12 02:32:06;;;;;;;0.97;0.90;;;10.20;38.70;;;;;;4917064;29;20424;-71
2022/03/12 02:34:53;;;;;;;0.93;0.83;;;10.20;38.70;;;;;;4917310;29;20470;-71
2022/03/12 02:37:30;;;;;;;0.90;0.67;;;10.20;38.70;;;;;;4918128;29;20451;-71
2022/03/12 02:39:58;;;;;;;2.10;2.00;;;10.20;38.90;;;;;;4918436;29;20447;-71
2022/03/12 02:42:25;;;;;;;0.70;0.60;;;10.20;39.10;;;;;;4918278;29;20462;-71
2022/03/12 02:44:51;;;;;;;0.80;0.70;;;10.20;39.40;;;;;;4917769;29;21011;-72
2022/03/12 02:47:21;;;;;;;0.80;0.70;;;10.20;39.50;;;;;;4918276;29;20427;-71
2022/03/12 02:49:53;;;;;;;0.70;0.57;;;10.20;40.00;;;;;;4918759;29;20416;-71
2022/03/12 02:52:21;;;;;;;6.10;2.87;;;10.20;41.60;;;;;;4917710;29;20438;-71
2022/03/12 02:54:49;;;;;;;0.80;0.70;;;10.10;42.90;;;;;;4917345;29;20441;-71
2022/03/12 02:57:15;;;;;;;0.87;0.87;;;10.00;44.10;;;;;;4917622;29;20447;-71
2022/03/12 02:59:43;;;;;;;1.17;0.70;;;9.90;45.00;;;;;;4918074;29;20416;-72
2022/03/12 03:02:11;;;;;;;0.80;0.70;;;9.90;45.50;;;;;;4918628;29;20495;-71
2022/03/12 03:04:40;;;;;;;0.70;0.60;;;9.80;45.10;;;;;;4918441;29;20458;-71
2022/03/12 03:07:10;;;;;;;0.70;0.50;;;9.70;45.20;;;;;;4918463;29;20420;-71
2022/03/12 03:09:37;;;;;;;1.70;1.40;;;9.70;45.00;;;;;;4917760;29;20459;-71
2022/03/12 03:12:07;;;;;;;1.10;0.80;;;9.60;44.30;;;;;;4918313;29;20439;-71
2022/03/12 03:14:33;;;;;;;2.00;1.20;;;9.60;43.80;;;;;;4916995;29;20535;-71
2022/03/12 03:17:00;;;;;;;0.70;0.60;;;9.60;43.90;;;;;;4918117;29;20541;-71
2022/03/12 03:19:26;;;;;;;0.70;0.57;;;9.60;43.40;;;;;;4918857;29;20423;-72
2022/03/12 03:21:58;;;;;;;0.70;0.50;;;9.60;43.20;;;;;;4918398;29;20450;-71
2022/03/12 03:24:25;;;;;;;2.60;0.87;;;9.60;43.20;;;;;;4917348;29;20432;-70
2022/03/12 03:26:56;;;;;;;0.93;0.87;;;9.70;42.40;;;;;;4917104;29;20439;-71
2022/03/12 03:29:24;;;;;;;0.80;0.80;;;9.70;42.00;;;;;;4917208;29;20780;-71
2022/03/12 03:31:50;;;;;;;1.50;1.40;;;9.70;42.00;;;;;;4916622;29;20773;-70
2022/03/12 03:34:17;;;;;;;2.20;1.23;;;9.70;42.00;;;;;;4916376;29;20797;-71
2022/03/12 03:36:43;;;;;;;0.80;0.80;;;9.70;42.20;;;;;;4916600;29;20419;-71
2022/03/12 03:39:08;;;;;;;0.80;0.70;;;9.70;42.60;;;;;;4916969;29;20420;-71
2022/03/12 03:41:34;;;;;;;1.27;1.17;;;9.70;42.70;;;;;;4918138;29;20472;-71
2022/03/12 03:44:00;;;;;;;1.97;0.90;;;9.80;43.00;;;;;;4918120;29;20255;-71
2022/03/12 03:46:26;;;;;;;0.90;0.80;;;9.80;42.90;;;;;;4918010;29;20182;-71
2022/03/12 03:48:53;;;;;;;0.80;0.63;;;9.70;42.90;;;;;;4916690;29;20763;-71
2022/03/12 03:51:20;;;;;;;0.70;0.50;;;9.70;42.90;;;;;;4916867;29;20175;-71
2022/03/12 03:53:46;;;;;;;0.80;0.70;;;9.70;43.10;;;;;;4916377;29;20439;-70
2022/03/12 03:56:12;;;;;;;0.70;0.50;;;9.70;43.40;;;;;;4916506;29;20492;-71
2022/03/12 03:58:38;;;;;;;1.67;0.80;;;9.70;43.60;;;;;;4915390;29;20467;-71
2022/03/12 04:01:11;;;;;;;0.80;0.70;;;9.60;43.70;;;;;;4916695;29;20491;-71
2022/03/12 04:03:38;;;;;;;0.70;0.60;;;9.60;44.00;;;;;;4916468;29;20184;-72
2022/03/12 04:06:05;;;;;;;0.80;0.67;;;9.50;43.80;;;;;;4917198;29;20427;-71
2022/03/12 04:08:32;;;;;;;2.27;0.80;;;9.50;43.70;;;;;;4916976;29;20438;-72
2022/03/12 04:10:58;;;;;;;0.70;0.60;;;9.50;43.90;;;;;;4917106;29;20427;-71
2022/03/12 04:13:24;;;;;;;1.43;1.10;;;9.50;44.00;;;;;;4916952;29;20427;-72
2022/03/12 04:15:51;;;;;;;0.80;0.60;;;9.50;44.10;;;;;;4916945;29;20463;-72
2022/03/12 04:18:21;;;;;;;1.30;0.80;;;9.40;44.20;;;;;;4917351;29;20491;-72
2022/03/12 04:20:48;;;;;;;0.80;0.77;;;9.40;44.30;;;;;;4917907;29;20541;-72
2022/03/12 04:23:18;;;;;;;14.50;2.40;;;9.40;44.60;;;;;;4931937;29;20446;-71
2022/03/12 04:25:48;;;;;;;0.93;0.83;;;9.40;44.60;;;;;;4917476;29;20422;-72
2022/03/12 04:28:14;;;;;;;1.00;0.90;;;9.30;44.40;;;;;;4932294;29;20434;-72
2022/03/12 04:30:40;;;;;;;1.57;1.47;;;9.30;44.50;;;;;;4931749;28;21000;-72
2022/03/12 04:33:08;;;;;;;0.80;0.70;;;9.30;44.60;;;;;;4931474;28;20244;-72
2022/03/12 04:35:34;;;;;;;3.03;2.20;;;9.30;44.70;;;;;;4916208;29;20661;-71
2022/03/12 04:38:01;;;;;;;0.80;0.80;;;9.30;44.90;;;;;;4916833;29;20542;-72
2022/03/12 04:40:27;;;;;;;0.70;0.60;;;9.20;44.90;;;;;;4917174;29;20427;-72
2022/03/12 04:42:53;;;;;;;1.47;0.70;;;9.20;44.90;;;;;;4931533;28;20590;-71
2022/03/12 04:45:22;;;;;;;1.20;1.10;;;9.20;45.00;;;;;;4919492;29;20179;-72
2022/03/12 04:47:49;;;;;;;0.70;0.50;;;9.20;45.00;;;;;;4920456;29;20439;-72
2022/03/12 04:50:16;;;;;;;0.90;0.70;;;9.20;45.20;;;;;;4920836;29;20498;-72
2022/03/12 04:52:48;;;;;;;0.80;0.80;;;9.20;45.20;;;;;;4935256;28;20435;-72
2022/03/12 04:55:17;;;;;;;0.70;0.50;;;9.20;45.40;;;;;;4935383;28;20407;-72
2022/03/12 04:57:43;;;;;;;0.80;0.60;;;9.20;45.60;;;;;;4921422;29;20531;-74
2022/03/12 05:00:25;;;;;;;2.10;1.23;;;9.20;45.80;;;;;;4920822;29;20439;-79
2022/03/12 05:02:54;;;;;;;0.70;0.53;;;9.10;45.80;;;;;;4920899;29;20491;-72
2022/03/12 05:05:19;;;;;;;0.70;0.50;;;9.10;45.80;;;;;;4918862;29;20502;-71
2022/03/12 05:07:45;;;;;;;0.77;0.60;;;9.10;46.00;;;;;;4919532;29;20527;-72
2022/03/12 05:10:12;;;;;;;1.43;1.07;;;9.10;46.20;;;;;;4935205;28;20175;-72
2022/03/12 05:12:40;;;;;;;0.80;0.60;;;9.10;46.40;;;;;;4919692;29;20467;-71
2022/03/12 05:15:07;;;;;;;0.90;0.80;;;9.10;46.30;;;;;;4918701;29;21108;-72
2022/03/12 05:17:34;;;;;;;3.43;1.03;;;8.90;46.40;;;;;;4933827;28;20460;-72
2022/03/12 05:20:00;;;;;;;0.80;0.50;;;8.90;46.70;;;;;;4919595;29;20421;-72
2022/03/12 05:22:25;;;;;;;0.70;0.50;;;8.90;47.00;;;;;;4919861;29;20411;-72
2022/03/12 05:24:51;;;;;;;0.80;0.60;;;8.80;47.10;;;;;;4919462;29;20515;-72
2022/03/12 05:27:17;;;;;;;1.33;1.23;;;8.80;47.20;;;;;;4934074;28;20522;-72
2022/03/12 05:29:45;;;;;;;1.50;0.77;;;8.70;47.40;;;;;;4919453;29;20183;-72
2022/03/12 05:32:12;;;;;;;0.70;0.50;;;8.70;47.70;;;;;;4919855;29;20411;-72
2022/03/12 05:34:38;;;;;;;0.80;0.70;;;8.60;48.10;;;;;;4919029;29;20432;-71
2022/03/12 05:37:08;;;;;;;2.73;1.43;;;8.50;48.40;;;;;;4919999;29;20463;-71
2022/03/12 05:39:34;;;;;;;0.70;0.60;;;8.50;48.90;;;;;;4920418;29;20500;-71
2022/03/12 05:42:00;;;;;;;0.87;0.70;;;8.40;49.50;;;;;;4919331;29;20431;-71
2022/03/12 05:44:28;;;;;;;1.00;0.90;;;8.30;49.80;;;;;;4918236;29;20431;-71
2022/03/12 05:46:53;;;;;;;5.33;1.73;;;8.20;50.30;;;;;;4918732;29;20460;-71
2022/03/12 05:49:19;;;;;;;1.43;1.33;;;8.10;50.80;;;;;;4920115;29;20913;-71
2022/03/12 05:51:44;;;;;;;4.30;1.30;;;8.00;51.20;;;;;;4919821;29;20258;-71
2022/03/12 05:54:10;;;;;;;0.70;0.50;;;7.90;51.40;;;;;;4918933;29;20206;-70
2022/03/12 05:56:39;;;;;;;0.70;0.50;;;7.80;51.70;;;;;;4916583;29;20415;-71
2022/03/12 05:59:06;;;;;;;1.30;1.20;;;7.80;52.00;;;;;;4917810;29;20172;-71
2022/03/12 06:01:31;;;;;;;0.73;0.60;;;7.60;51.90;;;;;;4917652;29;20426;-71
2022/03/12 06:04:00;;;;;;;2.30;0.97;;;7.60;52.30;;;;;;4932219;28;20424;-70
2022/03/12 06:06:29;;;;;;;1.00;0.90;;;7.50;52.90;;;;;;4917509;29;20195;-70
2022/03/12 06:08:58;;;;;;;0.80;0.77;;;7.50;53.50;;;;;;4918889;29;20424;-71
2022/03/12 06:11:25;;;;;;;2.00;1.80;;;7.50;54.20;;;;;;4918081;29;20930;-71
2022/03/12 06:13:57;;;;;;;0.90;0.73;;;7.40;54.30;;;;;;4934249;29;21012;-71
2022/03/12 06:16:24;;;;;;;0.70;0.50;;;7.40;54.80;;;;;;4919478;29;20407;-71
2022/03/12 06:18:52;;;;;;;1.27;1.17;;;7.40;55.10;;;;;;4917848;29;20466;-71
2022/03/12 06:21:19;;;;;;;1.57;1.47;;;7.40;55.20;;;;;;4918424;29;20436;-71
2022/03/12 06:23:45;;;;;;;0.70;0.50;;;7.40;55.40;;;;;;4918081;29;20440;-71
2022/03/12 06:26:14;;;;;;;0.70;0.50;;;7.50;55.80;;;;;;4918127;29;20408;-71
2022/03/12 06:28:41;;;;;;;0.80;0.70;;;7.50;56.00;;;;;;4917881;29;20203;-71
2022/03/12 06:31:07;;;;;;;0.70;0.50;;;7.50;56.00;;;;;;4916898;29;20420;-71
2022/03/12 06:33:34;;;;;;;0.70;0.50;;;7.60;56.10;;;;;;4932570;28;20440;-72
2022/03/12 06:36:02;;;;;;;0.70;0.50;;;7.70;56.30;;;;;;4917161;29;20925;-72
2022/03/12 06:38:28;;;;;;;1.10;0.97;;;7.70;56.30;;;;;;4917256;29;20464;-72
2022/03/12 06:40:57;;;;;;;2.53;2.10;;;7.80;57.10;;;;;;4916973;29;20411;-72
2022/03/12 06:43:22;;;;;;;1.10;1.00;;;7.90;56.60;;;;;;4932265;28;20455;-72
2022/03/12 06:45:49;;;;;;;4.67;1.57;;;8.00;56.80;;;;;;4917903;29;20420;-71
2022/03/12 06:48:16;;;;;;;2.23;1.17;;;8.10;57.20;;;;;;4917285;29;20270;-71
2022/03/12 06:50:42;;;;;;;0.70;0.50;;;8.20;57.80;;;;;;4917459;29;20420;-71
2022/03/12 06:53:08;;;;;;;0.80;0.60;;;8.30;58.20;;;;;;4917595;29;21164;-71
2022/03/12 06:55:34;;;;;;;0.70;0.50;;;8.50;58.70;;;;;;4917291;29;20412;-71
2022/03/12 06:57:59;;;;;;;1.40;1.20;;;8.50;58.80;;;;;;4917769;29;20223;-71
2022/03/12 07:00:28;;;;;;;0.90;0.80;;;8.70;58.70;;;;;;4917929;29;20176;-71
2022/03/12 07:02:55;;;;;;;1.10;1.00;;;8.80;59.20;;;;;;4917741;29;20238;-71
2022/03/12 07:05:21;;;;;;;0.90;0.63;;;8.90;59.50;;;;;;4917421;29;20495;-71
2022/03/12 07:07:47;;;;;;;2.80;1.10;;;9.00;59.60;;;;;;4917792;29;20477;-71
2022/03/12 07:10:13;;;;;;;0.70;0.50;;;9.10;59.20;;;;;;4916850;29;20432;-71
2022/03/12 07:12:40;;;;;;;1.83;1.10;;;9.30;59.00;;;;;;4917599;29;20962;-71
2022/03/12 07:15:06;;;;;;;0.83;0.80;;;9.40;58.70;;;;;;4917740;29;20601;-71
2022/03/12 07:17:32;;;;;;;6.60;1.53;;;9.60;58.70;;;;;;4917659;29;20508;-71
2022/03/12 07:19:58;;;;;;;0.93;0.87;;;9.70;58.70;;;;;;4917759;29;20168;-71
2022/03/12 07:22:23;;;;;;;1.43;0.70;;;9.90;59.10;;;;;;4918059;29;20523;-71
2022/03/12 07:24:49;;;;;;;1.33;1.23;;;10.00;58.30;;;;;;4932038;28;20490;-71
2022/03/12 07:27:14;;;;;;;2.50;1.53;;;10.20;57.30;;;;;;4917711;29;20192;-71
2022/03/12 07:29:41;;;;;;;0.80;0.50;;;10.30;57.40;;;;;;4918118;29;20183;-71
2022/03/12 07:32:07;;;;;;;0.93;0.90;;;10.40;57.70;;;;;;4917992;29;20260;-71
2022/03/12 07:34:32;;;;;;;0.83;0.70;;;10.60;57.70;;;;;;4931680;28;20530;-71
2022/03/12 07:36:58;;;;;;;2.87;1.63;;;10.80;57.10;;;;;;4916869;29;20482;-71
2022/03/12 07:39:23;;;;;;;0.80;0.60;;;10.90;57.70;;;;;;4917646;29;20258;-71
2022/03/12 07:41:49;;;;;;;0.80;0.63;;;11.20;57.70;;;;;;4916621;29;20199;-71
2022/03/12 07:44:14;;;;;;;3.07;1.00;;;11.50;56.60;;;;;;4917160;29;20277;-71
2022/03/12 07:46:40;;;;;;;1.53;1.43;;;12.00;56.50;;;;;;4917502;29;20525;-71
2022/03/12 07:49:06;;;;;;;1.80;1.70;;;12.50;56.60;;;;;;4917282;29;20186;-71
2022/03/12 07:51:32;;;;;;;2.10;1.47;;;13.00;56.50;;;;;;4916138;29;20805;-71
2022/03/12 07:54:00;;;;;;;1.97;1.27;;;13.50;56.00;;;;;;4917253;29;20199;-71
2022/03/12 07:56:26;;;;;;;3.90;1.57;;;14.00;55.80;;;;;;4931519;29;20502;-71
2022/03/12 07:58:52;;;;;;;1.50;1.30;;;14.50;55.50;;;;;;4917222;29;20455;-71
2022/03/12 08:01:17;;;;;;;1.00;0.90;;;15.10;55.50;;;;;;4917160;29;20427;-71
2022/03/12 08:03:43;;;;;;;2.33;1.30;;;15.60;54.90;;;;;;4916700;29;20274;-71
2022/03/12 08:06:10;;;;;;;2.93;1.67;;;16.20;54.70;;;;;;4916872;29;20179;-72
2022/03/12 08:08:36;;;;;;;3.43;2.27;;;16.50;54.00;;;;;;4917992;29;20771;-72
2022/03/12 08:13:46;;;;;;;2.17;1.30;;;17.80;52.80;;;;;;4917524;29;20944;-72
2022/03/12 08:16:13;;;;;;;3.63;1.37;;;18.70;51.10;;;;;;4917052;29;20415;-71
2022/03/12 08:18:39;;;;;;;2.23;1.40;;;19.30;49.60;;;;;;4917848;29;20220;-72
2022/03/12 08:21:05;;;;;;;2.73;1.43;;;19.90;48.30;;;;;;4920705;29;20422;-72
2022/03/12 08:23:31;;;;;;;2.30;1.83;;;20.40;47.20;;;;;;4920618;29;20507;-72
2022/03/12 08:25:57;;;;;;;3.53;0.87;;;21.10;46.90;;;;;;4919685;29;20488;-72
2022/03/12 08:28:23;;;;;;;1.30;1.13;;;22.00;46.50;;;;;;4921683;29;20167;-72
2022/03/12 08:30:49;;;;;;;1.10;1.00;;;22.70;46.30;;;;;;4935765;29;20423;-71
2022/03/12 08:33:14;;;;;;;1.17;1.00;;;23.20;47.20;;;;;;4919993;29;20192;-72
2022/03/12 08:35:40;;;;;;;1.97;1.00;;;23.70;46.90;;;;;;4919681;29;20180;-71
2022/03/12 08:38:07;;;;;;;2.30;1.57;;;24.40;47.30;;;;;;4921274;29;20207;-72
2022/03/12 08:40:33;;;;;;;2.03;1.47;;;24.70;46.50;;;;;;4920923;29;20164;-71
2022/03/12 08:42:58;;;;;;;1.47;1.37;;;25.00;46.20;;;;;;4921277;29;21041;-71
2022/03/12 08:45:24;;;;;;;1.10;1.00;;;25.40;45.70;;;;;;4920829;29;20188;-71
2022/03/12 08:47:50;;;;;;;1.60;1.30;;;25.80;45.00;;;;;;4920280;29;20168;-72
2022/03/12 08:50:16;;;;;;;2.23;1.77;;;25.90;44.10;;;;;;4920267;29;20251;-72
2022/03/12 08:52:42;;;;;;;0.80;0.63;;;26.20;43.80;;;;;;4934550;29;20613;-72
2022/03/12 08:55:09;;;;;;;1.37;1.27;;;26.70;43.90;;;;;;4919494;29;20211;-72
2022/03/12 08:57:36;;;;;;;1.30;1.17;;;27.20;43.00;;;;;;4920005;29;20459;-72
2022/03/12 09:00:06;;;;;;;3.40;2.47;;;27.60;42.40;;;;;;4918756;29;21081;-72
2022/03/12 09:02:36;;;;;;;1.57;1.30;;;28.10;41.90;;;;;;4919060;29;20443;-72
2022/03/12 09:05:04;;;;;;;1.00;0.77;;;28.50;41.60;;;;;;4919759;29;20452;-72
2022/03/12 09:07:30;;;;;;;1.30;0.93;;;28.90;40.90;;;;;;4934135;28;20494;-72
2022/03/12 09:09:56;;;;;;;1.27;1.17;;;29.10;40.50;;;;;;4919485;29;20412;-72
2022/03/12 09:12:22;;;;;;;2.13;1.70;;;28.80;40.10;;;;;;4919826;29;20845;-72
2022/03/12 09:14:48;;;;;;;1.20;1.10;;;28.40;40.30;;;;;;4934124;28;20523;-72
2022/03/12 09:17:13;;;;;;;1.90;1.43;;;28.10;40.50;;;;;;4919175;29;20455;-71
2022/03/12 09:19:39;;;;;;;2.10;1.67;;;27.80;41.00;;;;;;4919034;29;20646;-72
2022/03/12 09:22:05;;;;;;;3.07;1.13;;;27.40;41.10;;;;;;4919293;29;20188;-72
2022/03/12 09:24:31;;;;;;;1.67;1.23;;;27.10;42.00;;;;;;4919160;29;20241;-71
2022/03/12 09:26:56;;;;;;;1.00;0.80;;;27.00;41.70;;;;;;4919213;29;20522;-71
2022/03/12 09:29:22;;;;;;;1.57;1.27;;;27.10;42.00;;;;;;4919546;29;20415;-71
2022/03/12 09:31:48;;;;;;;1.00;0.90;;;27.20;41.80;;;;;;4933803;28;20180;-71
2022/03/12 09:34:14;;;;;;;1.23;1.10;;;27.30;41.50;;;;;;4919384;29;20466;-72
2022/03/12 09:36:40;;;;;;;2.00;1.43;;;27.50;41.70;;;;;;4918667;29;20424;-72
2022/03/12 09:39:06;;;;;;;1.93;1.43;;;27.40;41.50;;;;;;4918845;29;20207;-71
2022/03/12 09:41:34;;;;;;;1.00;0.90;;;27.30;41.40;;;;;;4919503;29;20455;-72
2022/03/12 09:44:00;;;;;;;1.67;1.00;;;27.00;41.40;;;;;;4919344;29;20487;-72
2022/03/12 09:46:26;;;;;;;1.10;1.00;;;26.90;41.70;;;;;;4918642;29;20439;-72
2022/03/12 09:48:51;;;;;;;1.03;0.87;;;26.70;41.60;;;;;;4918885;29;20910;-71
2022/03/12 09:51:18;;;;;;;1.10;1.00;;;26.70;41.80;;;;;;4933331;28;20186;-71
2022/03/12 09:53:43;;;;;;;1.40;1.20;;;26.60;42.00;;;;;;4918576;29;20203;-72
2022/03/12 09:56:09;;;;;;;1.20;0.80;;;26.40;42.00;;;;;;4918795;29;20415;-71
2022/03/12 09:58:34;;;;;;;1.80;1.50;;;26.60;42.00;;;;;;4918689;29;20639;-72
2022/03/12 10:01:00;;;;;;;1.43;1.33;;;27.10;41.90;;;;;;4918483;29;20634;-71
2022/03/12 10:03:26;;;;;;;1.10;0.93;;;27.60;41.30;;;;;;4918790;29;20685;-72
2022/03/12 10:05:52;;;;;;;1.63;1.50;;;27.50;41.00;;;;;;4917895;29;20187;-71
2022/03/12 10:08:17;;;;;;;1.10;1.00;;;28.00;41.10;;;;;;4918711;29;20187;-71
2022/03/12 10:10:44;;;;;;;2.50;1.63;;;28.10;40.20;;;;;;4918680;29;20199;-71
2022/03/12 10:13:10;;;;;;;2.67;2.47;;;28.00;40.00;;;;;;4918563;29;20685;-71
2022/03/12 10:15:37;;;;;;;1.30;1.20;;;27.90;40.20;;;;;;4917872;29;20830;-72
2022/03/12 10:18:03;;;;;;;0.90;0.80;;;28.30;40.40;;;;;;4918577;29;20551;-72
2022/03/12 10:20:30;;;;;;;1.47;0.87;;;28.70;39.90;;;;;;4918545;29;20528;-72
2022/03/12 10:22:56;;;;;;;2.30;2.10;;;28.50;39.70;;;;;;4918324;29;20948;-72
2022/03/12 10:25:22;;;;;;;1.20;0.90;;;29.10;39.60;;;;;;4918441;29;20420;-72
2022/03/12 10:27:48;;;;;;;1.20;0.93;;;29.40;39.00;;;;;;4918504;29;20180;-72
2022/03/12 10:30:13;;;;;;;1.83;1.20;;;30.00;38.80;;;;;;4918446;29;20906;-72
2022/03/12 10:32:49;;;;;;;0.97;0.83;;;30.10;37.90;;;;;;4918271;29;20742;-72
2022/03/12 10:35:18;;;;;;;1.97;1.63;;;30.40;37.80;;;;;;4917757;29;20238;-72
2022/03/12 10:37:45;;;;;;;1.07;0.97;;;30.40;37.60;;;;;;4917833;29;20869;-72
2022/03/12 10:40:25;;;;;;;1.57;1.40;;;30.30;37.80;;;;;;4918429;29;20482;-72
2022/03/12 10:42:56;;;;;;;1.57;1.47;;;30.50;37.50;;;;;;4917342;29;20423;-72
2022/03/12 10:45:25;;;;;;;1.10;0.93;;;30.90;37.10;;;;;;4917712;29;20430;-72
2022/03/12 10:47:54;;;;;;;1.30;1.20;;;31.10;37.00;;;;;;4917941;29;20412;-72
2022/03/12 10:50:41;;;;;;;1.67;1.10;;;31.50;37.00;;;;;;4917452;29;20506;-72
2022/03/12 10:53:08;;;;;;;1.53;1.23;;;31.50;36.10;;;;;;4916662;29;20443;-72
2022/03/12 10:55:37;;;;;;;1.20;1.10;;;31.40;36.10;;;;;;4917367;29;20829;-72
2022/03/12 10:58:12;;;;;;;1.00;0.87;;;31.30;36.20;;;;;;4916378;29;20463;-72
2022/03/12 11:00:51;;;;;;;1.20;1.10;;;30.70;36.30;;;;;;4917722;29;20407;-70
2022/03/12 11:03:21;;;;;;;1.30;0.80;;;30.30;36.80;;;;;;4917292;29;20446;-70
2022/03/12 11:05:49;;;;;;;1.27;1.17;;;29.70;37.20;;;;;;4917180;29;20403;-70
2022/03/12 11:08:20;;;;;;;1.40;1.20;;;29.60;37.50;;;;;;4917327;29;20420;-72
2022/03/12 11:11:11;;;;;;;1.20;1.00;;;29.20;37.80;;;;;;4917262;29;20419;-71
2022/03/12 11:13:48;;;;;;;1.00;0.80;;;28.60;38.20;;;;;;4917236;29;20435;-72
2022/03/12 11:16:21;;;;;;;2.57;1.67;;;27.90;38.80;;;;;;4916969;29;20929;-71
2022/03/12 11:18:53;;;;;;;0.90;0.70;;;27.30;39.50;;;;;;4917339;29;20455;-72
2022/03/12 11:21:37;;;;;;;1.40;1.10;;;26.50;40.20;;;;;;4917624;29;20886;-71
2022/03/12 11:24:18;;;;;;;1.60;1.10;;;25.70;41.30;;;;;;4917557;29;20473;-71
2022/03/12 11:26:51;;;;;;;1.17;1.07;;;25.00;42.00;;;;;;4917022;29;20856;-71
2022/03/12 11:29:19;;;;;;;2.80;1.40;;;24.60;42.70;;;;;;4917355;29;20839;-71
2022/03/12 11:31:48;;;;;;;1.00;0.80;;;24.40;43.20;;;;;;4917175;29;20447;-71
2022/03/12 11:34:20;;;;;;;1.20;1.10;;;24.40;43.30;;;;;;4916931;29;20936;-72
2022/03/12 11:37:08;;;;;;;0.90;0.60;;;24.80;43.80;;;;;;4917220;29;20446;-71
2022/03/12 11:39:40;;;;;;;1.37;1.27;;;25.00;42.90;;;;;;4917306;29;20546;-71
2022/03/12 11:42:11;;;;;;;2.33;1.13;;;25.00;43.10;;;;;;4931644;28;20507;-71
2022/03/12 11:44:49;;;;;;;1.10;1.00;;;25.00;42.80;;;;;;4916946;29;20853;-71
2022/03/12 11:47:17;;;;;;;1.10;1.00;;;25.20;42.80;;;;;;4917121;29;20940;-71
2022/03/12 11:49:44;;;;;;;1.73;1.33;;;25.70;42.20;;;;;;4917198;29;20418;-71
2022/03/12 11:52:10;;;;;;;1.40;0.90;;;25.50;42.20;;;;;;4917203;29;20442;-71
2022/03/12 11:54:41;;;;;;;1.20;1.00;;;25.30;42.20;;;;;;4917838;29;20439;-71
2022/03/12 11:57:08;;;;;;;2.40;1.10;;;25.20;42.00;;;;;;4921083;29;20402;-71
2022/03/12 11:59:34;;;;;;;0.90;0.63;;;25.00;42.50;;;;;;4920973;29;20407;-71
2022/03/12 12:02:16;;;;;;;1.63;1.53;;;24.70;42.40;;;;;;4921082;29;20451;-71
2022/03/12 12:04:43;;;;;;;2.60;0.70;;;24.40;43.00;;;;;;4920526;29;20786;-72
2022/03/12 12:07:09;;;;;;;1.63;1.27;;;24.00;43.50;;;;;;4919039;29;20423;-71
2022/03/12 12:09:34;;;;;;;0.80;0.60;;;24.10;43.50;;;;;;4920521;29;20404;-71
2022/03/12 12:12:00;;;;;;;3.30;0.70;;;24.70;43.10;;;;;;4920958;29;20681;-72
2022/03/12 12:14:26;;;;;;;1.83;1.07;;;25.50;42.60;;;;;;4920163;29;20187;-72
2022/03/12 12:16:57;;;;;;;0.90;0.80;;;25.80;42.20;;;;;;4920360;29;20475;-72
2022/03/12 12:19:23;;;;;;;1.87;1.00;;;26.00;41.50;;;;;;4920421;29;20408;-72
2022/03/12 12:21:49;;;;;;;1.30;1.10;;;26.20;41.10;;;;;;4920135;29;20837;-72
2022/03/12 12:24:32;;;;;;;1.37;1.17;;;26.80;40.60;;;;;;4920571;29;20586;-72
2022/03/12 12:27:03;;;;;;;1.30;1.10;;;27.20;40.70;;;;;;4919823;29;20168;-72
2022/03/12 12:29:52;;;;;;;1.10;1.00;;;28.10;39.40;;;;;;4920248;29;20403;-72
2022/03/12 12:32:23;;;;;;;1.60;1.10;;;28.20;38.70;;;;;;4934569;28;20408;-72
2022/03/12 12:35:04;;;;;;;1.53;1.43;;;27.80;38.40;;;;;;4919752;29;20975;-72
2022/03/12 12:37:43;;;;;;;1.40;1.30;;;27.20;39.20;;;;;;4920008;29;20451;-71
2022/03/12 12:40:21;;;;;;;0.80;0.60;;;27.40;39.10;;;;;;4920248;29;20420;-72
2022/03/12 12:42:51;;;;;;;1.50;0.90;;;27.90;38.90;;;;;;4934943;28;20426;-72
2022/03/12 12:45:19;;;;;;;1.00;0.83;;;28.30;38.00;;;;;;4919915;29;20420;-72
2022/03/12 12:47:45;;;;;;;1.00;0.70;;;27.80;37.90;;;;;;4920198;29;20434;-72
2022/03/12 12:50:21;;;;;;;1.00;0.90;;;27.40;38.80;;;;;;4934067;29;20921;-72
2022/03/12 12:53:08;;;;;;;1.20;1.07;;;27.70;38.80;;;;;;4919622;29;20178;-72
2022/03/12 12:55:34;;;;;;;3.23;1.07;;;28.00;38.80;;;;;;4919448;29;20547;-71
2022/03/12 12:58:00;;;;;;;0.90;0.70;;;27.50;38.10;;;;;;4919730;29;20541;-71